Time;durP1;ratioP1;P1;durP2;ratioP2;P2;SDS_P1;SDS_P2;PMS_P1;PMS_P2;Temp;Humidity;BMP_temperature;BMP_pressure;BME280_temperature;BME280_humidity;BME280_pressure;Samples;Min_cycle;Max_cycle;Signal;HPM_P1;HPM_P2
2022/02/13 00:00:57;;;;;;;0.00;0.00;;;;;;;4.90;57.92;100573.44;6118270;22;20010;-79
2022/02/13 00:03:24;;;;;;;0.00;0.00;;;;;;;4.89;58.22;100571.00;6118525;22;20006;-79
2022/02/13 00:05:49;;;;;;;0.00;0.00;;;;;;;4.81;58.94;100579.97;6118650;22;20418;-79
2022/02/13 00:08:15;;;;;;;0.70;0.65;;;;;;;4.75;59.28;100570.16;6118765;23;20022;-79
2022/02/13 00:10:41;;;;;;;0.00;0.00;;;;;;;4.72;59.73;100562.59;6119190;22;20439;-79
2022/02/13 00:13:06;;;;;;;0.17;0.17;;;;;;;4.65;60.55;100578.47;6118744;22;20006;-79
2022/02/13 00:15:31;;;;;;;0.00;0.00;;;;;;;4.59;60.91;100566.84;6118971;22;20010;-79
2022/02/13 00:17:57;;;;;;;0.00;0.00;;;;;;;4.54;61.67;100568.44;6118932;22;20457;-79
2022/02/13 00:20:23;;;;;;;0.00;0.00;;;;;;;4.46;61.84;100562.31;6133280;22;20423;-79
2022/02/13 00:22:49;;;;;;;0.00;0.00;;;;;;;4.47;62.04;100576.38;6247829;22;20039;-79
2022/02/13 00:25:15;;;;;;;0.28;0.28;;;;;;;4.45;62.39;100573.09;6247739;22;20015;-80
2022/02/13 00:27:40;;;;;;;0.55;0.38;;;;;;;4.41;62.66;100570.03;6247715;22;20011;-80
2022/02/13 00:30:07;;;;;;;0.00;0.00;;;;;;;4.38;62.81;100581.03;6247643;22;20019;-79
2022/02/13 00:32:33;;;;;;;0.10;0.10;;;;;;;4.35;63.10;100578.78;6248089;22;20011;-79
2022/02/13 00:34:59;;;;;;;0.00;0.00;;;;;;;4.33;63.61;100564.91;6248366;22;20003;-78
2022/02/13 00:37:24;;;;;;;0.00;0.00;;;;;;;4.30;63.78;100578.56;6247955;22;20349;-77
2022/02/13 00:39:50;;;;;;;0.00;0.00;;;;;;;4.28;64.22;100581.38;6275609;22;20065;-77
2022/02/13 00:42:15;;;;;;;0.00;0.00;;;;;;;4.23;64.58;100583.78;6248787;22;20008;-79
2022/02/13 00:44:40;;;;;;;0.00;0.00;;;;;;;4.22;64.96;100576.84;6248459;22;20004;-77
2022/02/13 00:47:06;;;;;;;0.10;0.10;;;;;;;4.22;65.05;100571.56;6248582;22;20007;-79
2022/02/13 00:49:32;;;;;;;0.00;0.00;;;;;;;4.21;65.08;100577.91;6248407;22;20000;-79
2022/02/13 00:51:58;;;;;;;0.00;0.00;;;;;;;4.20;65.25;100573.63;6247240;22;20015;-79
2022/02/13 00:54:23;;;;;;;0.98;0.90;;;;;;;4.20;65.91;100568.31;6247358;22;20012;-79
2022/02/13 00:56:48;;;;;;;1.45;1.08;;;;;;;4.17;66.05;100568.69;6274682;22;20053;-79
2022/02/13 00:59:14;;;;;;;0.22;0.22;;;;;;;4.19;65.98;100564.03;6247249;22;20024;-79
2022/02/13 01:01:39;;;;;;;0.00;0.00;;;;;;;4.15;66.56;100565.41;6247200;22;20464;-79
2022/02/13 01:04:05;;;;;;;0.10;0.10;;;;;;;4.16;66.85;100562.59;6274607;22;20069;-79
2022/02/13 01:06:31;;;;;;;0.00;0.00;;;;;;;4.13;66.67;100559.50;6247253;22;20349;-79
2022/02/13 01:08:56;;;;;;;0.00;0.00;;;;;;;4.12;67.44;100560.53;6247676;22;20011;-79
2022/02/13 01:11:21;;;;;;;1.45;1.08;;;;;;;4.07;67.25;100557.66;6276193;22;20531;-79
2022/02/13 01:13:48;;;;;;;0.15;0.15;;;;;;;4.08;67.17;100552.16;6249583;22;20012;-79
2022/02/13 01:16:18;;;;;;;0.10;0.10;;;;;;;4.03;67.93;100546.63;6249376;22;20079;-79
2022/02/13 01:18:45;;;;;;;0.00;0.00;;;;;;;4.07;67.98;100547.06;6249664;22;20004;-79
2022/02/13 01:21:13;;;;;;;0.00;0.00;;;;;;;4.04;68.05;100542.16;6190900;23;20037;-79
2022/02/13 01:23:42;;;;;;;0.00;0.00;;;;;;;4.00;68.51;100547.00;6120233;22;20033;-79
2022/02/13 01:26:09;;;;;;;0.10;0.10;;;;;;;3.95;68.76;100542.28;6120714;22;20010;-79
2022/02/13 01:28:34;;;;;;;0.00;0.00;;;;;;;3.96;68.77;100541.28;6120741;22;20002;-79
2022/02/13 01:31:02;;;;;;;0.00;0.00;;;;;;;3.92;69.01;100539.22;6120568;23;20006;-79
2022/02/13 01:33:30;;;;;;;0.83;0.57;;;;;;;3.88;69.21;100527.41;6120353;22;20431;-79
2022/02/13 01:35:56;;;;;;;0.00;0.00;;;;;;;3.84;69.57;100535.75;6121299;22;20695;-77
2022/02/13 01:38:21;;;;;;;0.00;0.00;;;;;;;3.83;69.99;100534.09;6120350;22;20002;-79
2022/02/13 01:40:47;;;;;;;0.85;0.85;;;;;;;3.84;70.00;100524.31;6120389;22;20037;-79
2022/02/13 01:43:12;;;;;;;0.00;0.00;;;;;;;3.83;70.52;100531.47;6120169;22;20442;-79
2022/02/13 01:45:37;;;;;;;0.00;0.00;;;;;;;3.84;70.42;100519.03;6119786;22;20009;-79
2022/02/13 01:48:03;;;;;;;0.00;0.00;;;;;;;3.80;70.59;100523.91;6120284;22;20013;-79
2022/02/13 01:50:29;;;;;;;1.05;0.95;;;;;;;3.74;70.84;100524.69;6120104;22;20013;-79
2022/02/13 01:52:55;;;;;;;1.33;1.25;;;;;;;3.68;71.74;100520.16;6119952;22;20092;-79
2022/02/13 01:55:20;;;;;;;0.00;0.00;;;;;;;3.63;71.75;100530.50;6119633;22;20010;-79
2022/02/13 01:57:46;;;;;;;0.40;0.40;;;;;;;3.57;72.17;100537.38;6119897;22;20013;-79
2022/02/13 02:00:11;;;;;;;0.90;0.90;;;;;;;3.58;71.82;100523.16;6120115;22;20509;-79
2022/02/13 02:02:37;;;;;;;0.00;0.00;;;;;;;3.56;72.29;100519.06;6120330;22;20013;-79
2022/02/13 02:05:03;;;;;;;0.00;0.00;;;;;;;3.49;72.70;100522.50;6119857;22;20010;-79
2022/02/13 02:07:29;;;;;;;0.20;0.20;;;;;;;3.45;72.81;100525.69;6119505;22;20009;-79
2022/02/13 02:09:55;;;;;;;0.00;0.00;;;;;;;3.40;73.25;100517.53;6120357;22;20006;-79
2022/02/13 02:12:20;;;;;;;0.00;0.00;;;;;;;3.34;73.53;100533.16;6119467;22;20017;-79
2022/02/13 02:14:46;;;;;;;0.00;0.00;;;;;;;3.34;73.73;100525.22;6121146;23;20010;-79
2022/02/13 02:17:11;;;;;;;1.83;1.60;;;;;;;3.35;73.27;100532.13;6120096;22;20009;-79
2022/02/13 02:19:37;;;;;;;0.47;0.35;;;;;;;3.32;73.74;100526.41;6119408;22;20010;-79
2022/02/13 02:22:07;;;;;;;0.00;0.00;;;;;;;3.34;73.13;100527.03;6119507;22;20394;-79
2022/02/13 02:24:33;;;;;;;0.00;0.00;;;;;;;3.32;73.38;100521.13;6122303;23;20091;-79
2022/02/13 02:27:00;;;;;;;0.17;0.17;;;;;;;3.31;73.46;100517.66;6121311;22;20040;-79
2022/02/13 02:29:25;;;;;;;0.03;0.03;;;;;;;3.28;73.14;100522.53;6120837;22;20097;-79
2022/02/13 02:31:51;;;;;;;0.00;0.00;;;;;;;3.27;73.23;100526.16;6121854;22;20002;-79
2022/02/13 02:34:16;;;;;;;0.70;0.70;;;;;;;3.23;73.56;100523.09;6121811;23;20041;-79
2022/02/13 02:36:42;;;;;;;1.02;1.00;;;;;;;3.24;73.66;100530.00;6120880;22;20010;-79
2022/02/13 02:39:07;;;;;;;0.20;0.20;;;;;;;3.20;73.53;100515.56;6121198;22;20017;-79
2022/02/13 02:41:33;;;;;;;0.05;0.05;;;;;;;3.23;73.72;100520.44;6120762;22;20498;-79
2022/02/13 02:43:59;;;;;;;0.43;0.43;;;;;;;3.19;73.93;100527.13;6121114;22;20017;-79
2022/02/13 02:46:25;;;;;;;0.32;0.32;;;;;;;3.19;74.10;100529.78;6121075;22;20020;-79
2022/02/13 02:48:50;;;;;;;0.00;0.00;;;;;;;3.14;74.56;100526.91;6121005;22;20028;-79
2022/02/13 02:51:15;;;;;;;0.00;0.00;;;;;;;3.11;74.45;100532.53;6120119;22;20010;-79
2022/02/13 02:53:42;;;;;;;0.20;0.20;;;;;;;3.09;74.07;100524.81;6120809;22;20088;-79
2022/02/13 02:56:09;;;;;;;2.85;1.35;;;;;;;3.09;74.42;100521.34;6121455;22;20006;-79
2022/02/13 02:58:35;;;;;;;3.50;1.00;;;;;;;3.06;74.63;100530.47;6120851;23;20595;-79
2022/02/13 03:01:01;;;;;;;0.00;0.00;;;;;;;3.08;74.85;100539.03;6121065;22;20006;-79
2022/02/13 03:03:26;;;;;;;0.73;0.68;;;;;;;3.09;74.30;100535.38;6121125;22;20028;-79
2022/02/13 03:05:52;;;;;;;0.47;0.47;;;;;;;3.07;74.29;100536.59;6121317;22;20006;-79
2022/02/13 03:08:19;;;;;;;0.80;0.80;;;;;;;3.08;74.01;100533.75;6121118;22;20354;-79
2022/02/13 03:10:45;;;;;;;0.35;0.35;;;;;;;3.00;74.51;100529.41;6121463;22;20006;-79
2022/02/13 03:13:12;;;;;;;0.00;0.00;;;;;;;3.04;74.55;100543.06;6121516;22;20439;-79
2022/02/13 03:15:38;;;;;;;0.00;0.00;;;;;;;3.06;74.05;100542.88;6121222;22;20013;-79
2022/02/13 03:18:03;;;;;;;0.32;0.22;;;;;;;3.03;73.81;100550.16;6121516;22;20088;-79
2022/02/13 03:20:29;;;;;;;0.08;0.08;;;;;;;3.03;73.95;100538.78;6141696;22;20043;-79
2022/02/13 03:22:54;;;;;;;0.00;0.00;;;;;;;3.02;73.86;100542.44;6277773;22;20007;-79
2022/02/13 03:25:20;;;;;;;0.00;0.00;;;;;;;2.95;73.72;100529.13;6250139;22;20060;-79
2022/02/13 03:27:45;;;;;;;0.00;0.00;;;;;;;2.97;73.72;100543.00;6278017;22;20030;-79
2022/02/13 03:30:11;;;;;;;1.50;1.40;;;;;;;2.93;73.32;100547.03;6250382;22;20063;-79
2022/02/13 03:32:36;;;;;;;0.00;0.00;;;;;;;2.87;73.70;100543.31;6249561;22;20008;-79
2022/02/13 03:35:02;;;;;;;0.00;0.00;;;;;;;2.85;73.05;100547.94;6249916;22;20014;-79
2022/02/13 03:37:27;;;;;;;0.00;0.00;;;;;;;2.77;73.20;100529.59;6249858;22;20003;-79
2022/02/13 03:39:53;;;;;;;0.00;0.00;;;;;;;2.77;73.03;100547.25;6250199;22;20003;-79
2022/02/13 03:42:19;;;;;;;0.22;0.22;;;;;;;2.74;72.76;100545.81;6249834;22;20012;-79
2022/02/13 03:44:44;;;;;;;0.00;0.00;;;;;;;2.71;72.49;100543.53;6250247;22;20006;-79
2022/02/13 03:47:09;;;;;;;0.00;0.00;;;;;;;2.68;72.57;100544.72;6250067;22;20437;-79
2022/02/13 03:49:35;;;;;;;0.00;0.00;;;;;;;2.69;72.26;100551.66;6249709;22;20008;-79
2022/02/13 03:52:01;;;;;;;0.47;0.47;;;;;;;2.66;71.61;100548.56;6249771;22;20011;-79
2022/02/13 03:54:26;;;;;;;0.15;0.15;;;;;;;2.63;71.49;100543.66;6249690;22;20003;-79
2022/02/13 03:56:52;;;;;;;0.10;0.10;;;;;;;2.60;71.14;100546.66;6249782;22;20000;-79
2022/02/13 03:59:17;;;;;;;0.00;0.00;;;;;;;2.62;70.62;100557.88;6249584;22;20015;-79
2022/02/13 04:01:42;;;;;;;0.00;0.00;;;;;;;2.61;70.49;100553.59;6276711;22;20480;-79
2022/02/13 04:04:09;;;;;;;0.00;0.00;;;;;;;2.58;70.89;100549.50;6248835;22;20016;-79
2022/02/13 04:06:34;;;;;;;0.00;0.00;;;;;;;2.64;70.53;100553.22;6249177;22;20045;-79
2022/02/13 04:09:00;;;;;;;0.00;0.00;;;;;;;2.63;70.68;100560.31;6276921;22;20007;-79
2022/02/13 04:11:26;;;;;;;0.00;0.00;;;;;;;2.63;70.58;100555.03;6249712;22;20015;-79
2022/02/13 04:13:51;;;;;;;0.00;0.00;;;;;;;2.62;70.60;100560.50;6249799;22;20392;-79
2022/02/13 04:16:17;;;;;;;0.00;0.00;;;;;;;2.62;70.35;100561.31;6249859;22;20077;-79
2022/02/13 04:18:42;;;;;;;0.05;0.05;;;;;;;2.60;70.23;100559.88;6248341;22;20003;-79
2022/02/13 04:21:08;;;;;;;0.00;0.00;;;;;;;2.62;70.04;100563.16;6193199;23;20478;-79
2022/02/13 04:23:33;;;;;;;0.00;0.00;;;;;;;2.64;69.15;100561.97;6121283;23;20013;-79
2022/02/13 04:25:59;;;;;;;0.00;0.00;;;;;;;2.59;69.38;100560.88;6120890;22;20037;-79
2022/02/13 04:28:25;;;;;;;14.70;1.85;;;;;;;2.61;69.56;100564.97;6121321;23;20010;-79
2022/02/13 04:30:51;;;;;;;0.25;0.25;;;;;;;2.62;69.13;100565.78;6121140;22;20017;-79
2022/02/13 04:33:16;;;;;;;0.00;0.00;;;;;;;2.58;69.78;100575.91;6122409;23;20006;-79
2022/02/13 04:35:42;;;;;;;0.00;0.00;;;;;;;2.57;70.17;100555.78;6120728;23;20084;-79
2022/02/13 04:38:07;;;;;;;0.00;0.00;;;;;;;2.56;69.68;100567.34;6120862;22;20059;-79
2022/02/13 04:40:33;;;;;;;0.00;0.00;;;;;;;2.56;69.77;100570.00;6120638;22;20476;-79
2022/02/13 04:42:59;;;;;;;0.10;0.10;;;;;;;2.52;70.16;100563.44;6121132;22;20014;-79
2022/02/13 04:45:24;;;;;;;0.10;0.10;;;;;;;2.47;70.28;100561.34;6120535;22;20009;-79
2022/02/13 04:47:50;;;;;;;0.00;0.00;;;;;;;2.48;70.17;100570.09;6121809;22;20438;-79
2022/02/13 04:50:21;;;;;;;0.08;0.08;;;;;;;2.46;70.73;100572.91;6120598;22;20012;-79
2022/02/13 04:52:47;;;;;;;0.00;0.00;;;;;;;2.43;70.66;100562.75;6120277;22;20010;-79
2022/02/13 04:55:12;;;;;;;0.00;0.00;;;;;;;2.40;70.74;100563.94;6120544;22;20017;-79
2022/02/13 04:57:39;;;;;;;0.00;0.00;;;;;;;2.37;70.77;100569.56;6119938;22;20006;-79
2022/02/13 05:00:05;;;;;;;0.00;0.00;;;;;;;2.31;71.10;100561.59;6119922;22;20443;-78
2022/02/13 05:02:31;;;;;;;0.00;0.00;;;;;;;2.32;70.98;100568.47;6120112;22;20028;-78
2022/02/13 05:04:56;;;;;;;0.00;0.00;;;;;;;2.31;71.30;100564.22;6120339;22;20458;-78
2022/02/13 05:07:22;;;;;;;0.00;0.00;;;;;;;2.24;71.51;100567.56;6121422;23;20040;-78
2022/02/13 05:09:47;;;;;;;0.00;0.00;;;;;;;2.24;71.87;100574.69;6119262;22;20501;-78
2022/02/13 05:12:12;;;;;;;1.02;1.02;;;;;;;2.21;71.97;100561.84;6120643;23;20009;-78
2022/02/13 05:14:38;;;;;;;0.30;0.30;;;;;;;2.21;71.89;100567.13;6119444;22;20017;-78
2022/02/13 05:17:03;;;;;;;0.00;0.00;;;;;;;2.21;71.82;100585.59;6121441;23;20030;-78
2022/02/13 05:19:29;;;;;;;0.52;0.52;;;;;;;2.17;72.29;100566.69;6121312;22;20006;-78
2022/02/13 05:21:57;;;;;;;0.40;0.40;;;;;;;2.21;72.02;100580.31;6120268;22;20014;-78
2022/02/13 05:24:23;;;;;;;0.00;0.00;;;;;;;2.23;72.98;100578.31;6119188;22;20100;-77
2022/02/13 05:26:49;;;;;;;0.00;0.00;;;;;;;2.27;72.71;100574.31;6118885;23;20009;-78
2022/02/13 05:29:14;;;;;;;0.00;0.00;;;;;;;2.29;72.75;100577.59;6121507;22;20009;-77
2022/02/13 05:31:39;;;;;;;0.00;0.00;;;;;;;2.34;72.65;100577.84;6120885;23;20009;-76
2022/02/13 05:34:05;;;;;;;0.20;0.20;;;;;;;2.42;72.46;100576.09;6120059;23;20481;-76
2022/02/13 05:36:30;;;;;;;0.22;0.22;;;;;;;2.50;72.53;100581.28;6117970;23;20017;-78
2022/02/13 05:38:56;;;;;;;1.10;0.85;;;;;;;2.52;72.01;100580.09;6118371;22;20006;-77
2022/02/13 05:41:22;;;;;;;3.92;0.55;;;;;;;2.55;71.97;100585.03;6118544;22;20013;-78
2022/02/13 05:43:48;;;;;;;0.15;0.15;;;;;;;2.63;72.07;100594.66;6117790;23;20094;-78
2022/02/13 05:46:13;;;;;;;0.00;0.00;;;;;;;2.65;71.91;100583.91;6118390;22;20093;-78
2022/02/13 05:48:40;;;;;;;0.00;0.00;;;;;;;2.71;71.73;100588.44;6117928;22;20002;-78
2022/02/13 05:51:06;;;;;;;1.75;1.65;;;;;;;2.75;71.93;100583.59;6118163;22;20021;-78
2022/02/13 05:53:32;;;;;;;0.25;0.25;;;;;;;2.80;71.70;100589.16;6119440;23;20006;-78
2022/02/13 05:55:57;;;;;;;0.00;0.00;;;;;;;2.87;71.73;100598.00;6118356;22;20029;-77
2022/02/13 05:58:22;;;;;;;0.47;0.20;;;;;;;2.90;71.89;100594.97;6120438;23;20005;-77
2022/02/13 06:00:48;;;;;;;0.00;0.00;;;;;;;2.92;71.28;100592.97;6120587;22;20005;-77
2022/02/13 06:03:13;;;;;;;0.05;0.05;;;;;;;2.99;71.32;100601.78;6118964;22;20045;-77
2022/02/13 06:05:39;;;;;;;0.03;0.03;;;;;;;3.02;71.18;100587.38;6118959;23;20009;-77
2022/02/13 06:08:04;;;;;;;1.48;0.95;;;;;;;3.08;70.86;100601.66;6120915;22;20087;-78
2022/02/13 06:10:30;;;;;;;0.00;0.00;;;;;;;3.12;71.19;100600.28;6119088;22;20401;-78
2022/02/13 06:12:55;;;;;;;0.30;0.30;;;;;;;3.14;71.03;100604.34;6119378;23;20021;-78
2022/02/13 06:15:21;;;;;;;0.00;0.00;;;;;;;3.20;70.97;100606.25;6119169;22;20042;-77
2022/02/13 06:17:46;;;;;;;0.45;0.45;;;;;;;3.27;70.75;100605.50;6119294;23;20010;-77
2022/02/13 06:20:11;;;;;;;0.00;0.00;;;;;;;3.29;70.67;100608.78;6123897;22;20037;-79
2022/02/13 06:22:37;;;;;;;0.00;0.00;;;;;;;3.31;70.69;100599.66;6249323;22;20058;-78
2022/02/13 06:25:03;;;;;;;0.00;0.00;;;;;;;3.39;70.81;100596.03;6276415;22;20049;-78
2022/02/13 06:27:28;;;;;;;0.13;0.13;;;;;;;3.44;70.59;100582.25;6249415;22;20007;-78
2022/02/13 06:29:54;;;;;;;0.00;0.00;;;;;;;3.48;70.35;100586.97;6249601;22;20007;-78
2022/02/13 06:32:19;;;;;;;0.13;0.13;;;;;;;3.58;70.39;100596.41;6249948;22;20526;-77
2022/02/13 06:34:46;;;;;;;0.00;0.00;;;;;;;3.66;69.36;100591.81;6249444;22;20031;-77
2022/02/13 06:37:11;;;;;;;0.30;0.30;;;;;;;3.66;69.34;100585.69;6277155;22;20421;-77
2022/02/13 06:39:37;;;;;;;0.10;0.10;;;;;;;3.70;69.55;100589.59;6249712;22;20006;-78
2022/02/13 06:42:03;;;;;;;0.00;0.00;;;;;;;3.72;69.20;100584.91;6276670;22;20003;-77
2022/02/13 06:44:28;;;;;;;0.00;0.00;;;;;;;3.80;69.47;100591.91;6276046;22;20007;-78
2022/02/13 06:46:54;;;;;;;2.83;1.95;;;;;;;3.88;68.95;100590.91;6276006;22;19999;-78
2022/02/13 06:49:19;;;;;;;0.38;0.38;;;;;;;3.93;68.66;100589.34;6276022;22;20042;-78
2022/02/13 06:51:45;;;;;;;0.00;0.00;;;;;;;3.96;68.24;100578.34;6275638;22;20007;-77
2022/02/13 06:54:10;;;;;;;0.00;0.00;;;;;;;4.05;68.20;100591.44;6249458;22;20008;-78
2022/02/13 06:56:36;;;;;;;0.00;0.00;;;;;;;4.01;67.94;100586.53;6277094;22;20067;-77
2022/02/13 06:59:01;;;;;;;0.20;0.20;;;;;;;4.04;68.46;100582.69;6277512;22;20010;-78
2022/02/13 07:01:27;;;;;;;0.05;0.05;;;;;;;4.05;68.21;100588.78;6250385;22;20031;-78
2022/02/13 07:03:52;;;;;;;0.08;0.08;;;;;;;4.06;68.09;100593.06;6249764;22;19999;-77
2022/02/13 07:06:18;;;;;;;0.00;0.00;;;;;;;4.05;68.55;100589.59;6276762;22;20011;-78
2022/02/13 07:08:43;;;;;;;0.45;0.45;;;;;;;4.05;68.25;100588.78;6275907;22;20387;-78
2022/02/13 07:11:09;;;;;;;0.38;0.38;;;;;;;4.03;68.42;100589.00;6249773;22;20086;-78
2022/02/13 07:13:34;;;;;;;0.00;0.00;;;;;;;4.04;68.51;100579.22;6249592;22;20345;-78
2022/02/13 07:16:00;;;;;;;0.63;0.63;;;;;;;4.09;68.56;100582.91;6249316;22;20068;-78
2022/02/13 07:18:25;;;;;;;0.85;0.85;;;;;;;4.05;68.59;100573.72;6277365;22;20072;-78
2022/02/13 07:20:52;;;;;;;0.10;0.10;;;;;;;4.11;68.36;100586.19;6208438;23;20022;-78
2022/02/13 07:23:18;;;;;;;0.10;0.10;;;;;;;4.12;68.82;100579.06;6122718;23;20067;-78
2022/02/13 07:25:43;;;;;;;0.00;0.00;;;;;;;4.21;68.88;100574.41;6119198;23;20006;-78
2022/02/13 07:30:52;;;;;;;0.00;0.00;;;;;;;4.32;68.77;100572.03;6121292;23;20018;-78
2022/02/13 07:33:18;;;;;;;0.00;0.00;;;;;;;4.39;68.31;100566.75;6119805;22;20010;-78
2022/02/13 07:35:43;;;;;;;0.28;0.28;;;;;;;4.48;68.23;100578.03;6121324;23;20014;-78
2022/02/13 07:38:10;;;;;;;0.50;0.50;;;;;;;4.56;68.24;100577.03;6121300;23;20090;-78
2022/02/13 07:40:36;;;;;;;0.00;0.00;;;;;;;4.59;68.02;100573.97;6121484;23;20010;-78
2022/02/13 07:43:02;;;;;;;0.30;0.30;;;;;;;4.62;67.69;100571.72;6118944;22;20359;-77
2022/02/13 07:45:27;;;;;;;0.10;0.10;;;;;;;4.65;67.38;100568.69;6119232;22;20006;-77
2022/02/13 07:47:52;;;;;;;0.00;0.00;;;;;;;4.67;67.01;100571.13;6121566;22;20455;-78
2022/02/13 07:50:18;;;;;;;0.00;0.00;;;;;;;4.73;67.27;100572.19;6120115;23;20006;-77
2022/02/13 07:52:43;;;;;;;0.00;0.00;;;;;;;4.75;67.25;100570.97;6119938;23;20439;-77
2022/02/13 07:55:09;;;;;;;0.00;0.00;;;;;;;4.74;67.27;100574.63;6119394;22;20006;-79
2022/02/13 07:57:34;;;;;;;0.00;0.00;;;;;;;4.78;66.98;100572.41;6119019;23;20002;-79
2022/02/13 08:00:00;;;;;;;0.00;0.00;;;;;;;4.85;67.00;100564.47;6118770;22;20091;-78
2022/02/13 08:02:25;;;;;;;0.22;0.22;;;;;;;4.87;66.68;100565.91;6119000;22;20014;-77
2022/02/13 08:04:50;;;;;;;0.35;0.35;;;;;;;4.90;66.25;100570.00;6118583;22;20416;-77
2022/02/13 08:07:16;;;;;;;0.00;0.00;;;;;;;4.94;66.55;100552.66;6118907;22;20041;-79
2022/02/13 08:09:42;;;;;;;0.10;0.10;;;;;;;4.96;66.07;100562.03;6118583;23;20006;-77
2022/02/13 08:12:09;;;;;;;0.00;0.00;;;;;;;4.91;66.10;100556.53;6119624;22;20470;-77
2022/02/13 08:14:35;;;;;;;0.52;0.52;;;;;;;4.96;66.34;100563.88;6119552;23;20006;-77
2022/02/13 08:17:00;;;;;;;0.10;0.10;;;;;;;4.97;65.99;100554.91;6120507;23;20029;-79
2022/02/13 08:19:26;;;;;;;0.47;0.45;;;;;;;5.02;65.93;100556.97;6119037;22;20149;-79
2022/02/13 08:21:52;;;;;;;0.22;0.22;;;;;;;5.06;65.40;100559.00;6117547;22;20025;-78
2022/02/13 08:24:17;;;;;;;0.00;0.00;;;;;;;5.07;65.37;100559.81;6120852;22;20006;-78
2022/02/13 08:26:43;;;;;;;0.00;0.00;;;;;;;5.03;65.72;100556.75;6119045;23;20010;-78
2022/02/13 08:29:08;;;;;;;0.08;0.08;;;;;;;5.07;65.50;100554.53;6118937;22;20002;-78
2022/02/13 08:31:34;;;;;;;0.10;0.10;;;;;;;5.10;65.79;100562.88;6119492;22;20034;-78
2022/02/13 08:33:59;;;;;;;0.00;0.00;;;;;;;5.11;65.92;100556.56;6118954;22;20009;-78
2022/02/13 08:36:25;;;;;;;3.75;1.65;;;;;;;5.16;65.95;100555.13;6119052;22;20140;-78
2022/02/13 08:38:50;;;;;;;0.13;0.13;;;;;;;5.24;65.83;100549.66;6120434;23;20095;-78
2022/02/13 08:41:16;;;;;;;0.30;0.30;;;;;;;5.25;64.82;100562.69;6118994;23;20401;-79
2022/02/13 08:43:41;;;;;;;0.13;0.13;;;;;;;5.22;65.44;100552.47;6119284;22;20002;-79
2022/02/13 08:46:08;;;;;;;0.05;0.05;;;;;;;5.35;65.36;100546.38;6120809;23;20431;-78
2022/02/13 08:48:33;;;;;;;0.00;0.00;;;;;;;5.33;64.80;100552.91;6119263;22;20013;-78
2022/02/13 08:50:59;;;;;;;0.00;0.00;;;;;;;5.28;64.83;100550.84;6118968;22;20010;-79
2022/02/13 08:53:25;;;;;;;0.05;0.05;;;;;;;5.32;65.48;100540.66;6119348;22;20031;-78
2022/02/13 08:55:50;;;;;;;0.00;0.00;;;;;;;5.40;65.22;100541.25;6118914;23;20049;-78
2022/02/13 08:58:16;;;;;;;0.00;0.00;;;;;;;5.51;65.12;100552.28;6118746;22;20017;-77
2022/02/13 09:00:41;;;;;;;0.43;0.43;;;;;;;5.56;64.94;100540.03;6118963;22;20009;-77
2022/02/13 09:03:06;;;;;;;0.00;0.00;;;;;;;5.65;64.00;100542.47;6118666;22;20033;-76
2022/02/13 09:05:32;;;;;;;0.10;0.10;;;;;;;5.71;63.95;100544.28;6118628;23;20024;-78
2022/02/13 09:07:59;;;;;;;0.00;0.00;;;;;;;5.77;64.02;100539.00;6118495;22;20062;-79
2022/02/13 09:10:24;;;;;;;0.00;0.00;;;;;;;5.86;63.91;100534.28;6121307;23;20006;-79
2022/02/13 09:12:50;;;;;;;0.00;0.00;;;;;;;5.94;62.97;100541.19;6119594;22;20442;-79
2022/02/13 09:15:16;;;;;;;0.00;0.00;;;;;;;6.02;63.12;100537.53;6119853;23;20060;-79
2022/02/13 09:17:42;;;;;;;0.00;0.00;;;;;;;6.08;62.87;100534.06;6119340;22;20409;-79
2022/02/13 09:20:08;;;;;;;0.20;0.20;;;;;;;6.14;62.61;100529.72;6120050;23;20006;-78
2022/02/13 09:22:34;;;;;;;0.00;0.00;;;;;;;6.17;62.98;100519.50;6119704;23;20018;-79
2022/02/13 09:24:59;;;;;;;0.55;0.55;;;;;;;6.23;61.61;100529.28;6120842;23;20006;-79
2022/02/13 09:27:25;;;;;;;0.00;0.00;;;;;;;6.24;60.94;100522.13;6119852;23;20156;-78
2022/02/13 09:29:52;;;;;;;0.00;0.00;;;;;;;6.23;60.89;100510.69;6121716;23;20002;-78
2022/02/13 09:32:18;;;;;;;0.00;0.00;;;;;;;6.30;60.49;100517.81;6119760;22;20029;-78
2022/02/13 09:34:43;;;;;;;0.00;0.00;;;;;;;6.30;60.76;100508.00;6119262;22;20416;-78
2022/02/13 09:37:08;;;;;;;0.00;0.00;;;;;;;6.31;60.76;100508.81;6120017;22;20010;-79
2022/02/13 09:39:34;;;;;;;0.08;0.08;;;;;;;6.41;61.32;100509.19;6119880;23;20410;-78
2022/02/13 09:41:59;;;;;;;0.65;0.65;;;;;;;6.43;60.04;100509.78;6120308;23;20014;-78
2022/02/13 09:44:25;;;;;;;0.10;0.10;;;;;;;6.48;60.36;100491.38;6120191;22;20021;-79
2022/02/13 09:46:50;;;;;;;0.10;0.10;;;;;;;6.59;59.95;100491.69;6118421;22;20017;-78
2022/02/13 09:49:17;;;;;;;2.10;1.38;;;;;;;6.66;59.94;100495.13;6119979;22;20343;-79
2022/02/13 09:51:42;;;;;;;0.52;0.52;;;;;;;6.70;58.92;100491.84;6118638;22;20017;-79
2022/02/13 09:54:09;;;;;;;0.63;0.63;;;;;;;6.66;59.42;100484.50;6118587;22;20010;-79
2022/02/13 09:56:34;;;;;;;0.10;0.10;;;;;;;6.64;58.67;100497.19;6118497;22;20006;-79
2022/02/13 09:59:04;;;;;;;0.00;0.00;;;;;;;6.59;59.04;100476.56;6117812;22;20013;-78
2022/02/13 10:01:45;;;;;;;0.30;0.30;;;;;;;6.57;59.09;100476.78;6118257;22;20034;-79
2022/02/13 10:04:14;;;;;;;0.03;0.03;;;;;;;6.50;59.08;100478.66;6118736;23;20393;-79
2022/02/13 10:06:41;;;;;;;0.00;0.00;;;;;;;6.48;59.46;100464.78;6118873;22;20013;-78
2022/02/13 10:09:09;;;;;;;0.00;0.00;;;;;;;6.59;60.48;100460.59;6119066;22;20447;-78
2022/02/13 10:11:37;;;;;;;0.00;0.00;;;;;;;6.60;59.71;100448.16;6121009;23;20458;-78
2022/02/13 10:14:05;;;;;;;0.55;0.55;;;;;;;6.66;59.16;100452.59;6120654;23;20013;-78
2022/02/13 10:16:40;;;;;;;0.00;0.00;;;;;;;6.70;59.19;100451.97;6119209;23;20343;-78
2022/02/13 10:19:09;;;;;;;0.00;0.00;;;;;;;6.77;58.75;100443.13;6120238;23;20017;-79
2022/02/13 10:21:49;;;;;;;0.05;0.05;;;;;;;6.77;58.16;100435.94;6211537;22;20011;-79
2022/02/13 10:24:21;;;;;;;0.20;0.20;;;;;;;6.81;56.79;100439.81;6274736;22;20004;-79
2022/02/13 10:26:56;;;;;;;0.00;0.00;;;;;;;6.72;55.38;100433.13;6247001;22;20357;-78
2022/02/13 10:29:22;;;;;;;0.00;0.00;;;;;;;6.72;55.92;100433.13;6248047;22;20003;-79
2022/02/13 10:31:48;;;;;;;0.35;0.35;;;;;;;6.67;56.08;100419.69;6246645;22;20445;-79
2022/02/13 10:34:17;;;;;;;0.35;0.35;;;;;;;6.68;56.51;100421.31;6247584;22;20046;-78
2022/02/13 10:36:43;;;;;;;;;;;;;;;6.69;56.24;100410.44;6247637;22;20010;-79
2022/02/13 10:39:18;;;;;;;0.40;0.40;;;;;;;6.64;55.03;100409.47;6247006;22;19957;-79
2022/02/13 10:41:43;;;;;;;0.00;0.00;;;;;;;6.65;55.60;100390.66;6246425;22;20011;-81
2022/02/13 10:44:09;;;;;;;0.00;0.00;;;;;;;6.64;55.95;100383.72;6247248;22;20008;-77
2022/02/13 10:46:37;;;;;;;0.00;0.00;;;;;;;6.65;56.31;100392.50;6250810;22;20103;-79
2022/02/13 10:49:04;;;;;;;0.60;0.57;;;;;;;6.65;56.22;100395.16;6251516;22;20024;-79
2022/02/13 10:51:30;;;;;;;0.43;0.43;;;;;;;6.63;57.10;100387.41;6251589;22;20471;-79
2022/02/13 10:53:57;;;;;;;0.00;0.00;;;;;;;6.58;56.58;100384.56;6249902;22;20043;-78
2022/02/13 10:56:23;;;;;;;0.30;0.30;;;;;;;6.63;56.95;100373.28;6277091;22;20000;-79
2022/02/13 10:58:49;;;;;;;0.10;0.10;;;;;;;6.61;56.46;100368.19;6250902;22;20010;-79
2022/02/13 11:01:18;;;;;;;0.38;0.38;;;;;;;6.64;56.81;100359.78;6249769;22;20007;-79
2022/02/13 11:03:48;;;;;;;0.28;0.28;;;;;;;6.65;56.31;100363.25;6250040;22;20014;-78
2022/02/13 11:06:15;;;;;;;0.63;0.63;;;;;;;6.70;56.94;100352.75;6250539;22;20650;-79
2022/02/13 11:08:54;;;;;;;0.00;0.00;;;;;;;6.72;55.98;100358.69;6277791;22;20004;-78
2022/02/13 11:11:21;;;;;;;0.00;0.00;;;;;;;6.76;56.40;100348.44;6251086;22;20025;-78
2022/02/13 11:13:47;;;;;;;0.17;0.17;;;;;;;6.82;56.25;100351.03;6250383;22;20345;-79
2022/02/13 11:16:32;;;;;;;0.00;0.00;;;;;;;6.83;54.72;100346.53;6250318;22;20011;-78
2022/02/13 11:19:05;;;;;;;0.73;0.73;;;;;;;6.80;53.16;100342.47;6249328;22;20011;-78
2022/02/13 11:21:32;;;;;;;0.00;0.00;;;;;;;6.91;54.34;100348.91;6174874;23;20018;-78
2022/02/13 11:24:00;;;;;;;0.28;0.28;;;;;;;6.89;54.38;100338.47;6120659;23;20044;-78
2022/02/13 11:26:41;;;;;;;0.00;0.00;;;;;;;6.94;54.83;100343.13;6121144;22;20136;-79
2022/02/13 11:29:08;;;;;;;0.00;0.00;;;;;;;6.95;54.81;100328.00;6120718;22;20017;-79
2022/02/13 11:31:51;;;;;;;0.00;0.00;;;;;;;6.94;54.12;100313.88;6120835;22;20018;-79